EGVN - Brize Norton
Distance from station: E 5mi, 14km
Updated: 06/19/2018 2:50pm
Mostly Cloudy
Mostly Cloudy
 Wind from W
Wind: W 5 mph , 7 km/h
Temperature: 64°F , 18°C
Dew Point: 59°F , 15°C
Humidity: 83%
Barometer: 30.18 inHg , 1022 hPa
Clouds: Mostly Cloudy
Visibility: 6 miles , 10 km
Cloud details: Mostly Cloudy 1500 ft
2018/06/19 21:50 EGVN 192150Z 27004KT 9999 BKN015 18/15 Q1022 BECMG BKN012